Time;durP1;ratioP1;P1;durP2;ratioP2;P2;SDS_P1;SDS_P2;PMS_P1;PMS_P2;Temp;Humidity;BMP_temperature;BMP_pressure;BME280_temperature;BME280_humidity;BME280_pressure;Samples;Min_cycle;Max_cycle;Signal;HPM_P1;HPM_P2
2023/06/08 00:00:11;;;;;;;3.42;1.90;;;20.60;1.00;;;;;;4880731;29;20045;-49
2023/06/08 00:02:39;;;;;;;5.38;2.05;;;20.60;1.00;;;;;;4881166;29;20424;-48
2023/06/08 00:05:08;;;;;;;6.97;2.30;;;20.60;1.00;;;;;;4881140;29;20079;-51
2023/06/08 00:07:36;;;;;;;3.50;1.83;;;20.60;1.00;;;;;;4881228;29;20045;-48
2023/06/08 00:10:04;;;;;;;2.95;1.90;;;20.60;1.00;;;;;;4880507;29;20041;-50
2023/06/08 00:12:31;;;;;;;5.07;2.10;;;20.60;1.00;;;;;;4880898;29;20479;-50
2023/06/08 00:14:58;;;;;;;2.55;1.63;;;20.60;1.00;;;;;;4880729;29;20088;-48
2023/06/08 00:17:25;;;;;;;4.18;1.92;;;20.60;1.00;;;;;;4880806;29;20481;-49
2023/06/08 00:19:52;;;;;;;3.03;1.90;;;20.60;1.00;;;;;;4894421;29;20120;-48
2023/06/08 00:22:21;;;;;;;2.88;1.85;;;20.60;1.00;;;;;;4879528;29;20055;-51
2023/06/08 00:24:48;;;;;;;4.65;3.05;;;20.60;1.00;;;;;;4880603;29;20397;-51
2023/06/08 00:27:15;;;;;;;2.13;1.52;;;20.50;1.00;;;;;;4871681;29;20413;-48
2023/06/08 00:29:42;;;;;;;4.45;1.95;;;20.60;1.00;;;;;;4879013;29;20104;-50
2023/06/08 00:32:09;;;;;;;4.70;1.58;;;20.60;1.00;;;;;;4878724;29;20656;-50
2023/06/08 00:34:36;;;;;;;2.38;1.80;;;20.50;1.00;;;;;;4879312;29;20049;-53
2023/06/08 00:37:03;;;;;;;5.10;2.30;;;20.60;1.00;;;;;;4878621;29;20048;-51
2023/06/08 00:39:31;;;;;;;3.47;1.73;;;20.50;1.00;;;;;;4879413;29;20041;-50
2023/06/08 00:41:57;;;;;;;5.88;2.53;;;20.50;1.00;;;;;;4879937;29;20486;-50
2023/06/08 00:44:24;;;;;;;4.25;2.10;;;20.50;1.00;;;;;;4879494;29;20057;-49
2023/06/08 00:46:54;;;;;;;3.15;1.90;;;20.50;1.00;;;;;;4881630;29;20105;-48
2023/06/08 00:49:22;;;;;;;4.25;2.13;;;20.50;1.00;;;;;;4878973;29;20420;-50
2023/06/08 00:51:49;;;;;;;2.88;1.63;;;20.50;1.00;;;;;;4879996;29;20063;-51
2023/06/08 00:54:16;;;;;;;5.28;2.20;;;20.50;1.00;;;;;;4870996;29;20560;-50
2023/06/08 00:56:48;;;;;;;3.80;1.92;;;20.50;1.00;;;;;;4878854;29;20135;-49
2023/06/08 00:59:18;;;;;;;2.92;1.75;;;20.50;1.00;;;;;;4878735;29;20049;-52
2023/06/08 01:01:45;;;;;;;4.82;1.95;;;20.50;1.00;;;;;;4879615;29;20405;-49
2023/06/08 01:04:14;;;;;;;3.40;1.48;;;20.50;1.00;;;;;;4878487;29;20531;-48
2023/06/08 01:06:48;;;;;;;3.38;2.00;;;20.50;1.00;;;;;;4879784;29;20041;-50
2023/06/08 01:09:29;;;;;;;3.70;2.30;;;20.50;1.00;;;;;;4878437;29;20442;-49
2023/06/08 01:12:20;;;;;;;5.20;2.05;;;20.50;1.00;;;;;;4878008;29;20056;-49
2023/06/08 01:15:02;;;;;;;3.90;2.00;;;20.40;1.00;;;;;;4879699;29;20105;-51
2023/06/08 01:17:38;;;;;;;3.45;1.70;;;20.50;1.00;;;;;;4879767;29;20053;-50
2023/06/08 01:20:09;;;;;;;4.85;1.83;;;20.40;1.00;;;;;;4879503;29;20109;-49
2023/06/08 01:23:16;;;;;;;4.72;2.60;;;20.40;1.00;;;;;;4879528;29;20049;-49
2023/06/08 01:25:45;;;;;;;2.33;1.67;;;20.40;1.00;;;;;;4879484;29;20059;-52
2023/06/08 01:28:12;;;;;;;3.78;1.83;;;20.40;1.00;;;;;;4878159;29;20049;-52
2023/06/08 01:30:40;;;;;;;3.67;1.60;;;20.40;1.00;;;;;;4877945;29;20113;-52
2023/06/08 01:33:11;;;;;;;5.63;2.30;;;20.40;1.00;;;;;;4879233;29;20048;-52
2023/06/08 01:35:38;;;;;;;6.75;2.30;;;20.40;1.00;;;;;;4879487;29;20045;-49
2023/06/08 01:38:36;;;;;;;4.85;2.50;;;20.40;1.00;;;;;;4878939;29;20061;-49
2023/06/08 01:41:11;;;;;;;5.00;2.03;;;20.40;1.00;;;;;;4862144;29;20132;-50
2023/06/08 01:43:42;;;;;;;3.85;2.08;;;20.40;1.00;;;;;;4878282;29;20123;-48
2023/06/08 01:46:12;;;;;;;5.57;2.45;;;20.30;1.00;;;;;;4883402;29;20136;-49
2023/06/08 01:48:40;;;;;;;4.75;2.28;;;20.40;1.00;;;;;;4879085;29;20060;-49
2023/06/08 01:51:08;;;;;;;4.80;2.33;;;20.40;1.00;;;;;;4877156;29;20532;-48
2023/06/08 01:53:35;;;;;;;2.78;1.77;;;20.40;1.00;;;;;;4877800;29;20478;-49
2023/06/08 01:56:02;;;;;;;4.75;1.70;;;20.40;1.00;;;;;;4878852;29;20045;-49
2023/06/08 01:58:29;;;;;;;5.38;1.88;;;20.40;1.00;;;;;;4877701;29;20049;-49
2023/06/08 02:00:56;;;;;;;3.13;1.77;;;20.30;1.00;;;;;;4877152;29;20191;-49
2023/06/08 02:03:22;;;;;;;5.82;1.98;;;20.40;1.00;;;;;;4878986;29;20097;-48
2023/06/08 02:05:49;;;;;;;4.05;2.10;;;20.40;1.00;;;;;;4877624;29;20052;-49
2023/06/08 02:08:16;;;;;;;4.25;1.95;;;20.30;1.00;;;;;;4878647;29;20478;-50
2023/06/08 02:10:43;;;;;;;3.53;1.88;;;20.40;1.00;;;;;;4877409;29;20075;-48
2023/06/08 02:13:10;;;;;;;5.13;2.05;;;20.30;1.00;;;;;;4878537;29;20489;-48
2023/06/08 02:15:38;;;;;;;4.07;2.40;;;20.30;1.00;;;;;;4878403;29;20110;-48
2023/06/08 02:18:05;;;;;;;5.25;1.92;;;20.30;1.00;;;;;;4877585;29;20462;-49
2023/06/08 02:20:33;;;;;;;5.30;2.72;;;20.30;1.00;;;;;;4877405;29;20045;-48
2023/06/08 02:23:00;;;;;;;4.32;1.70;;;20.30;1.00;;;;;;4879075;29;20049;-49
2023/06/08 02:25:27;;;;;;;2.95;1.73;;;20.30;1.00;;;;;;4877199;29;20048;-48
2023/06/08 02:27:55;;;;;;;6.43;2.13;;;20.30;1.00;;;;;;4878381;29;20109;-48
2023/06/08 02:30:22;;;;;;;5.68;2.28;;;20.30;1.00;;;;;;4878508;29;20498;-50
2023/06/08 02:32:49;;;;;;;4.95;1.98;;;20.30;1.00;;;;;;4892687;29;20068;-49
2023/06/08 02:35:16;;;;;;;4.18;2.08;;;20.30;1.00;;;;;;4878144;29;20052;-49
2023/06/08 02:37:46;;;;;;;4.03;2.35;;;20.30;1.00;;;;;;4876947;29;20386;-49
2023/06/08 02:40:13;;;;;;;5.45;1.90;;;20.30;1.00;;;;;;4876626;29;20132;-49
2023/06/08 02:42:41;;;;;;;4.90;2.20;;;20.30;1.00;;;;;;4876858;29;20056;-48
2023/06/08 02:45:10;;;;;;;8.35;1.90;;;20.30;1.00;;;;;;4882865;29;20119;-48
2023/06/08 02:47:39;;;;;;;5.53;1.65;;;20.20;1.00;;;;;;4876998;29;20053;-48
2023/06/08 02:50:06;;;;;;;6.43;2.05;;;20.20;1.00;;;;;;4876473;29;20572;-49
2023/06/08 02:52:34;;;;;;;4.10;1.83;;;20.20;1.00;;;;;;4876856;29;20052;-48
2023/06/08 02:55:01;;;;;;;4.75;2.30;;;20.20;1.00;;;;;;4877939;29;20527;-48
2023/06/08 02:57:29;;;;;;;5.85;2.05;;;20.20;1.00;;;;;;4876923;29;20524;-48
2023/06/08 03:00:00;;;;;;;4.20;1.65;;;20.20;1.00;;;;;;4876468;29;20049;-48
2023/06/08 03:02:37;;;;;;;5.13;2.10;;;20.20;1.00;;;;;;4881901;29;20500;-49
2023/06/08 03:05:05;;;;;;;3.47;1.55;;;20.20;1.00;;;;;;4882932;29;20416;-49
2023/06/08 03:07:36;;;;;;;6.63;2.67;;;20.20;1.00;;;;;;4884232;29;20044;-48
2023/06/08 03:10:05;;;;;;;7.20;2.47;;;20.20;1.00;;;;;;4867425;29;20101;-49
2023/06/08 03:12:32;;;;;;;7.25;2.50;;;20.20;1.00;;;;;;4882839;29;20048;-48
2023/06/08 03:15:01;;;;;;;4.30;1.90;;;20.20;1.00;;;;;;4882822;29;20041;-48
2023/06/08 03:17:28;;;;;;;5.57;2.30;;;20.10;1.00;;;;;;4881951;29;20045;-49
2023/06/08 03:19:57;;;;;;;4.38;2.15;;;20.10;1.00;;;;;;4881393;29;20083;-49
2023/06/08 03:22:26;;;;;;;6.07;1.88;;;20.20;1.00;;;;;;4873525;29;20041;-48
2023/06/08 03:24:58;;;;;;;6.13;2.03;;;20.20;1.00;;;;;;4882117;29;20068;-48
2023/06/08 03:27:26;;;;;;;4.97;2.10;;;20.10;1.00;;;;;;4882546;29;20481;-48
2023/06/08 03:29:55;;;;;;;5.53;2.20;;;20.20;1.00;;;;;;4882193;29;20405;-48
2023/06/08 03:32:25;;;;;;;5.80;2.00;;;20.10;1.00;;;;;;4882687;29;20045;-50
2023/06/08 03:34:54;;;;;;;5.32;2.55;;;20.10;1.00;;;;;;4882794;29;20048;-49
2023/06/08 03:37:21;;;;;;;5.97;2.40;;;20.10;1.00;;;;;;4882433;29;20465;-48
2023/06/08 03:39:49;;;;;;;3.03;1.52;;;20.10;1.00;;;;;;4882724;29;20041;-48
2023/06/08 03:42:17;;;;;;;5.78;2.08;;;20.10;1.00;;;;;;4882379;29;20429;-49
2023/06/08 03:44:45;;;;;;;3.63;1.85;;;20.10;1.00;;;;;;4886189;29;20437;-49
2023/06/08 03:47:12;;;;;;;2.42;1.58;;;20.10;1.00;;;;;;4885294;29;20421;-48
2023/06/08 03:49:40;;;;;;;3.53;2.00;;;20.10;1.00;;;;;;4882623;29;20045;-48
2023/06/08 03:52:09;;;;;;;5.82;2.28;;;20.10;1.00;;;;;;4882020;29;20065;-49
2023/06/08 03:54:35;;;;;;;7.15;2.55;;;20.10;1.00;;;;;;4882552;29;20064;-48
2023/06/08 03:57:03;;;;;;;3.47;1.83;;;20.10;1.00;;;;;;4882258;29;20405;-48
2023/06/08 03:59:29;;;;;;;3.03;1.75;;;20.10;1.00;;;;;;4882460;29;20140;-51
2023/06/08 04:01:56;;;;;;;5.28;2.30;;;20.10;1.00;;;;;;4882006;29;20053;-48
2023/06/08 04:04:23;;;;;;;6.72;2.15;;;20.10;1.00;;;;;;4882238;29;20069;-48
2023/06/08 04:06:51;;;;;;;4.40;1.90;;;20.00;1.00;;;;;;4882342;29;20101;-50
2023/06/08 04:09:18;;;;;;;4.28;1.90;;;20.10;1.00;;;;;;4882277;29;20147;-48
2023/06/08 04:11:44;;;;;;;4.25;2.22;;;20.10;1.00;;;;;;4881858;29;20048;-48
2023/06/08 04:14:11;;;;;;;5.00;1.92;;;20.10;1.00;;;;;;4879564;29;20045;-48
2023/06/08 04:16:41;;;;;;;4.20;1.98;;;20.00;1.00;;;;;;4879345;29;20041;-48
2023/06/08 04:19:11;;;;;;;4.07;2.00;;;20.00;1.00;;;;;;4879187;29;20037;-49
2023/06/08 04:21:39;;;;;;;4.38;1.98;;;20.00;1.00;;;;;;4878992;29;20128;-49
2023/06/08 04:24:09;;;;;;;4.75;2.15;;;20.00;1.00;;;;;;4879267;29;20055;-48
2023/06/08 04:26:38;;;;;;;3.28;1.95;;;20.00;1.00;;;;;;4879101;29;20104;-49
2023/06/08 04:29:05;;;;;;;6.10;2.28;;;20.00;1.00;;;;;;4879017;29;20144;-50
2023/06/08 04:31:36;;;;;;;7.28;2.33;;;20.00;1.00;;;;;;4878900;29;20512;-48
2023/06/08 04:34:04;;;;;;;3.80;1.77;;;20.00;1.00;;;;;;4879088;29;20052;-51
2023/06/08 04:36:31;;;;;;;4.18;1.58;;;20.00;1.00;;;;;;4878762;29;20105;-48
2023/06/08 04:38:58;;;;;;;3.50;2.00;;;20.00;1.00;;;;;;4879319;29;20045;-51
2023/06/08 04:41:29;;;;;;;3.63;2.15;;;20.00;1.00;;;;;;4878371;29;20101;-50
2023/06/08 04:44:01;;;;;;;4.80;2.78;;;20.00;1.00;;;;;;4879332;29;20442;-49
2023/06/08 04:46:30;;;;;;;5.38;1.88;;;20.00;1.00;;;;;;4884663;29;20049;-49
2023/06/08 04:48:57;;;;;;;3.80;1.48;;;20.00;1.00;;;;;;4878889;29;20052;-49
2023/06/08 04:51:24;;;;;;;4.07;1.80;;;20.00;1.00;;;;;;4878313;29;20053;-51
2023/06/08 04:53:54;;;;;;;3.85;1.70;;;20.00;1.00;;;;;;4879948;29;20055;-48
2023/06/08 04:56:24;;;;;;;5.97;2.00;;;20.00;1.00;;;;;;4878539;29;20137;-49
2023/06/08 04:58:50;;;;;;;3.60;1.77;;;20.00;1.00;;;;;;4878844;29;20045;-48
2023/06/08 05:01:18;;;;;;;6.95;2.20;;;20.00;1.00;;;;;;4878186;29;20052;-48
2023/06/08 05:03:46;;;;;;;2.58;1.88;;;19.90;1.00;;;;;;4878736;29;20045;-48
2023/06/08 05:06:14;;;;;;;7.28;2.25;;;19.90;1.00;;;;;;4878160;29;20442;-48
2023/06/08 05:08:41;;;;;;;5.18;1.95;;;19.90;1.00;;;;;;4880076;29;20119;-48
2023/06/08 05:11:09;;;;;;;3.80;2.28;;;19.90;1.00;;;;;;4877966;29;20097;-48
2023/06/08 05:13:36;;;;;;;7.38;2.55;;;19.90;1.00;;;;;;4879785;29;20033;-50
2023/06/08 05:16:03;;;;;;;4.47;1.92;;;19.90;1.00;;;;;;4879733;29;20053;-48
2023/06/08 05:18:29;;;;;;;5.43;1.92;;;19.90;1.00;;;;;;4879473;29;20489;-48
2023/06/08 05:20:56;;;;;;;5.03;1.90;;;19.90;1.00;;;;;;4877769;29;20084;-48
2023/06/08 05:23:23;;;;;;;6.18;1.83;;;19.90;1.00;;;;;;4879452;29;20076;-50
2023/06/08 05:25:50;;;;;;;3.30;1.38;;;19.90;1.00;;;;;;4879222;29;20044;-48
2023/06/08 05:28:17;;;;;;;4.10;1.77;;;19.90;1.00;;;;;;4879555;29;20127;-48
2023/06/08 05:30:44;;;;;;;5.40;1.85;;;19.90;1.00;;;;;;4879476;29;20041;-48
2023/06/08 05:33:11;;;;;;;4.10;1.58;;;19.90;1.00;;;;;;4879524;29;20045;-48
2023/06/08 05:35:38;;;;;;;5.00;1.45;;;19.90;1.00;;;;;;4878219;29;20085;-49
2023/06/08 05:38:05;;;;;;;3.45;1.83;;;19.90;1.00;;;;;;4879345;29;20123;-48
2023/06/08 05:40:32;;;;;;;2.95;1.92;;;19.90;1.00;;;;;;4877946;29;20041;-48
2023/06/08 05:42:59;;;;;;;5.40;2.15;;;19.90;1.00;;;;;;4879564;29;20112;-49
2023/06/08 05:45:26;;;;;;;4.57;1.75;;;19.90;1.00;;;;;;4885801;29;20049;-49
2023/06/08 05:47:52;;;;;;;7.32;2.50;;;19.90;1.00;;;;;;4879529;29;20124;-49
2023/06/08 05:50:20;;;;;;;2.70;1.63;;;19.90;1.00;;;;;;4879982;29;20056;-48
2023/06/08 05:52:46;;;;;;;2.55;1.80;;;19.90;1.00;;;;;;4883147;29;20048;-48
2023/06/08 05:55:14;;;;;;;2.97;1.85;;;19.90;1.00;;;;;;4882286;29;20045;-50
2023/06/08 05:57:40;;;;;;;2.13;1.50;;;19.90;1.00;;;;;;4881342;29;20041;-48
2023/06/08 06:00:12;;;;;;;4.55;2.03;;;19.90;1.00;;;;;;4878775;29;20041;-49
2023/06/08 06:02:40;;;;;;;6.55;1.88;;;19.90;1.00;;;;;;4878920;29;20109;-49
2023/06/08 06:05:08;;;;;;;7.30;2.65;;;19.90;1.00;;;;;;4879180;29;20140;-52
2023/06/08 06:07:36;;;;;;;4.50;1.90;;;19.90;1.00;;;;;;4871637;29;20048;-51
2023/06/08 06:10:04;;;;;;;3.83;2.00;;;19.90;1.00;;;;;;4878598;29;20465;-49
2023/06/08 06:12:32;;;;;;;6.63;2.33;;;19.90;1.00;;;;;;4878381;29;20482;-53
2023/06/08 06:15:00;;;;;;;4.50;2.25;;;19.90;1.00;;;;;;4878516;29;20067;-52
2023/06/08 06:17:27;;;;;;;4.95;2.17;;;19.90;1.00;;;;;;4878299;29;20040;-51
2023/06/08 06:19:54;;;;;;;7.88;2.28;;;19.90;1.00;;;;;;4878781;29;20079;-51
2023/06/08 06:22:21;;;;;;;6.40;2.13;;;19.90;1.00;;;;;;4878433;29;20045;-50
2023/06/08 06:24:49;;;;;;;7.78;3.03;;;19.90;1.00;;;;;;4878481;29;20492;-51
2023/06/08 06:27:16;;;;;;;5.57;2.08;;;19.90;1.00;;;;;;4878368;29;20056;-52
2023/06/08 06:29:43;;;;;;;7.18;2.10;;;19.90;1.00;;;;;;4878419;29;20117;-49
2023/06/08 06:32:11;;;;;;;6.97;2.10;;;19.90;1.00;;;;;;4877893;29;20100;-50
2023/06/08 06:34:38;;;;;;;5.80;2.08;;;19.90;1.00;;;;;;4878427;29;20045;-48
2023/06/08 06:37:05;;;;;;;3.53;1.38;;;19.90;1.00;;;;;;4877498;29;20055;-49
2023/06/08 06:39:31;;;;;;;4.60;2.00;;;19.90;1.00;;;;;;4878234;29;20145;-50
2023/06/08 06:42:00;;;;;;;3.08;1.42;;;19.90;1.00;;;;;;4877845;29;20070;-48
2023/06/08 06:44:35;;;;;;;5.78;2.20;;;19.90;1.00;;;;;;4879071;29;20045;-52
2023/06/08 06:47:02;;;;;;;4.40;1.85;;;19.90;1.00;;;;;;4882513;29;20049;-50
2023/06/08 06:49:29;;;;;;;6.03;2.22;;;19.90;1.00;;;;;;4876827;29;20105;-52
2023/06/08 06:51:56;;;;;;;3.25;2.10;;;19.90;1.00;;;;;;4877799;29;20041;-49
2023/06/08 06:54:22;;;;;;;5.88;2.25;;;19.90;1.00;;;;;;4878074;29;20417;-50
2023/06/08 06:56:49;;;;;;;4.65;2.47;;;19.90;1.00;;;;;;4878068;29;20053;-50
2023/06/08 06:59:17;;;;;;;5.75;2.13;;;19.90;1.00;;;;;;4878098;29;20041;-51
2023/06/08 07:01:44;;;;;;;5.10;2.00;;;19.90;1.00;;;;;;4877791;29;20116;-50
2023/06/08 07:04:14;;;;;;;6.88;1.63;;;19.90;1.00;;;;;;4878061;29;20041;-49
2023/06/08 07:06:42;;;;;;;3.80;2.45;;;19.90;1.00;;;;;;4877928;29;20107;-53
2023/06/08 07:09:10;;;;;;;5.50;2.17;;;19.90;1.00;;;;;;4877852;29;20057;-50
2023/06/08 07:11:37;;;;;;;7.85;2.45;;;19.90;1.00;;;;;;4870024;29;20124;-50
2023/06/08 07:14:05;;;;;;;3.40;1.73;;;19.90;1.00;;;;;;4878032;29;20132;-50
2023/06/08 07:16:31;;;;;;;6.75;1.73;;;20.00;1.00;;;;;;4876488;29;20409;-49
2023/06/08 07:18:58;;;;;;;4.90;2.00;;;20.00;1.00;;;;;;4877853;29;20041;-49
2023/06/08 07:21:25;;;;;;;5.38;1.88;;;19.90;1.00;;;;;;4877492;29;20045;-52
2023/06/08 07:24:06;;;;;;;7.25;2.45;;;20.00;1.00;;;;;;4878120;29;20037;-49
2023/06/08 07:26:53;;;;;;;7.00;2.28;;;20.00;1.00;;;;;;4872277;29;20042;-49
2023/06/08 07:29:20;;;;;;;4.25;2.03;;;19.90;1.00;;;;;;4877679;29;20049;-50
2023/06/08 07:31:47;;;;;;;2.60;2.10;;;20.00;1.00;;;;;;4877662;29;20052;-50
2023/06/08 07:34:14;;;;;;;3.55;1.58;;;20.00;1.00;;;;;;4877602;29;20041;-52
2023/06/08 07:36:40;;;;;;;4.53;2.05;;;20.00;1.00;;;;;;4877550;29;20053;-50
2023/06/08 07:39:07;;;;;;;6.25;2.28;;;20.00;1.00;;;;;;4877790;29;20037;-48
2023/06/08 07:41:34;;;;;;;6.78;1.60;;;20.00;1.00;;;;;;4877328;29;20049;-49
2023/06/08 07:44:02;;;;;;;6.25;1.83;;;20.00;1.00;;;;;;4878231;29;20056;-51
2023/06/08 07:46:28;;;;;;;5.00;2.40;;;20.00;1.00;;;;;;4885075;29;20060;-51
2023/06/08 07:48:55;;;;;;;4.32;1.98;;;20.00;1.00;;;;;;4880557;29;20127;-53
2023/06/08 07:51:22;;;;;;;6.80;2.05;;;20.10;1.00;;;;;;4880647;29;20041;-52
2023/06/08 07:53:49;;;;;;;5.68;1.88;;;20.10;1.00;;;;;;4879720;29;20076;-50
2023/06/08 07:56:16;;;;;;;7.70;2.40;;;20.00;1.00;;;;;;4880870;29;20127;-51
2023/06/08 07:58:43;;;;;;;5.15;2.33;;;20.00;1.00;;;;;;4879654;29;20045;-52
2023/06/08 08:01:09;;;;;;;4.50;1.63;;;20.10;1.00;;;;;;4880480;29;20118;-48
2023/06/08 08:03:37;;;;;;;7.40;2.00;;;20.10;1.00;;;;;;4879419;29;20041;-49
2023/06/08 08:06:05;;;;;;;3.60;1.73;;;20.00;1.00;;;;;;4880832;29;20123;-50
2023/06/08 08:08:33;;;;;;;5.35;2.17;;;20.10;1.00;;;;;;4880638;29;20045;-52
2023/06/08 08:10:59;;;;;;;5.15;2.03;;;20.10;1.00;;;;;;4880698;29;20101;-49
2023/06/08 08:13:28;;;;;;;5.93;2.40;;;20.10;1.00;;;;;;4881052;29;20529;-48
2023/06/08 08:15:55;;;;;;;8.07;2.80;;;20.10;1.00;;;;;;4880912;29;20457;-49
2023/06/08 08:18:22;;;;;;;5.28;2.08;;;20.10;1.00;;;;;;4880819;29;20045;-49
2023/06/08 08:20:49;;;;;;;6.25;2.67;;;20.10;1.00;;;;;;4879044;29;20044;-51
2023/06/08 08:23:15;;;;;;;3.35;2.10;;;20.10;1.00;;;;;;4880396;29;20072;-50
2023/06/08 08:25:42;;;;;;;3.55;1.90;;;20.10;1.00;;;;;;4880588;29;20105;-52
2023/06/08 08:28:09;;;;;;;5.50;2.58;;;20.10;1.00;;;;;;4880587;29;20056;-49
2023/06/08 08:30:36;;;;;;;4.20;1.52;;;20.10;1.00;;;;;;4879823;29;20053;-49
2023/06/08 08:33:03;;;;;;;5.35;2.15;;;20.10;1.00;;;;;;4880273;29;20076;-52
2023/06/08 08:35:31;;;;;;;3.80;2.20;;;20.10;1.00;;;;;;4880351;29;20069;-49
2023/06/08 08:37:58;;;;;;;4.07;1.70;;;20.10;1.00;;;;;;4880034;29;20093;-49
2023/06/08 08:40:25;;;;;;;6.85;2.65;;;20.10;1.00;;;;;;4879766;29;20041;-49
2023/06/08 08:43:06;;;;;;;3.45;1.67;;;20.20;1.00;;;;;;4880138;29;20045;-49
2023/06/08 08:45:34;;;;;;;4.00;1.67;;;20.10;1.00;;;;;;4887510;29;20555;-50
2023/06/08 08:48:01;;;;;;;3.10;1.98;;;20.20;1.00;;;;;;4880146;29;20056;-49
2023/06/08 08:50:33;;;;;;;5.28;2.20;;;20.20;1.00;;;;;;4879923;29;20045;-49
2023/06/08 08:53:01;;;;;;;3.40;1.75;;;20.20;1.00;;;;;;4880129;29;20093;-49
2023/06/08 08:55:29;;;;;;;4.82;1.90;;;20.20;1.00;;;;;;4878598;29;20052;-49
2023/06/08 08:58:00;;;;;;;7.00;2.00;;;20.20;1.00;;;;;;4879715;29;20048;-49
2023/06/08 09:00:27;;;;;;;5.60;2.10;;;20.20;1.00;;;;;;4877906;29;20041;-49
2023/06/08 09:02:54;;;;;;;8.73;2.03;;;20.20;1.00;;;;;;4879901;29;20479;-49
2023/06/08 09:05:21;;;;;;;5.97;2.78;;;20.20;1.00;;;;;;4880178;29;20124;-51
2023/06/08 09:07:52;;;;;;;5.85;2.28;;;20.20;1.00;;;;;;4879853;29;20100;-50
2023/06/08 09:10:21;;;;;;;5.60;2.17;;;20.20;1.00;;;;;;4879310;29;20055;-51
2023/06/08 09:12:50;;;;;;;4.75;1.85;;;20.20;1.00;;;;;;4879804;29;20458;-49
2023/06/08 09:15:27;;;;;;;4.43;2.22;;;20.20;1.00;;;;;;4879753;29;20474;-49
2023/06/08 09:18:02;;;;;;;3.97;1.45;;;20.20;1.00;;;;;;4879656;29;20460;-49
2023/06/08 09:20:31;;;;;;;3.80;1.38;;;20.20;1.00;;;;;;4879104;29;20041;-50
2023/06/08 09:23:14;;;;;;;4.15;1.98;;;20.20;1.00;;;;;;4879454;29;20121;-49
2023/06/08 09:25:41;;;;;;;4.63;2.78;;;20.30;1.00;;;;;;4879372;29;20048;-48
2023/06/08 09:28:16;;;;;;;5.22;2.75;;;20.30;1.00;;;;;;4879476;29;20378;-49
2023/06/08 09:30:44;;;;;;;5.70;2.10;;;20.20;1.00;;;;;;4878733;29;20128;-50
2023/06/08 09:33:24;;;;;;;5.03;2.28;;;20.20;1.00;;;;;;4879244;29;20516;-49
2023/06/08 09:35:57;;;;;;;4.72;1.90;;;20.30;1.00;;;;;;4879154;29;20048;-49
2023/06/08 09:38:26;;;;;;;4.40;1.63;;;20.30;1.00;;;;;;4879253;29;20045;-50
2023/06/08 09:41:22;;;;;;;3.20;2.30;;;20.30;1.00;;;;;;4878778;29;20041;-49
2023/06/08 09:43:51;;;;;;;6.55;2.22;;;20.30;1.00;;;;;;4872099;29;20052;-51
2023/06/08 09:46:34;;;;;;;4.57;2.30;;;20.30;1.00;;;;;;4879001;29;20124;-48
2023/06/08 09:49:04;;;;;;;4.25;1.73;;;20.30;1.00;;;;;;4879000;29;20044;-49
2023/06/08 09:51:36;;;;;;;8.15;2.53;;;20.30;1.00;;;;;;4878348;29;20052;-49
2023/06/08 09:54:04;;;;;;;5.10;2.53;;;20.30;1.00;;;;;;4879012;29;20485;-49
2023/06/08 09:56:32;;;;;;;5.03;1.80;;;20.30;1.00;;;;;;4878807;29;20061;-50
2023/06/08 09:59:06;;;;;;;2.88;1.70;;;20.30;1.00;;;;;;4878723;29;20382;-49
2023/06/08 10:01:40;;;;;;;3.67;1.90;;;20.30;1.00;;;;;;4878382;29;20405;-49
2023/06/08 10:04:31;;;;;;;7.07;1.88;;;20.30;1.00;;;;;;4878631;29;20453;-49
2023/06/08 10:07:06;;;;;;;5.03;1.85;;;20.30;1.00;;;;;;4872079;29;20049;-49
2023/06/08 10:09:36;;;;;;;3.78;2.53;;;20.30;1.00;;;;;;4878557;29;20045;-50
2023/06/08 10:12:05;;;;;;;4.25;1.58;;;20.30;1.00;;;;;;4877548;29;20101;-51
2023/06/08 10:14:33;;;;;;;5.30;1.65;;;20.30;1.00;;;;;;4878409;29;20044;-49
2023/06/08 10:17:01;;;;;;;4.05;1.83;;;20.30;1.00;;;;;;4878719;29;20056;-49
2023/06/08 10:19:32;;;;;;;6.78;2.38;;;20.30;1.00;;;;;;4878501;29;20390;-49
2023/06/08 10:22:00;;;;;;;5.15;1.90;;;20.30;1.00;;;;;;4878398;29;20044;-53
2023/06/08 10:24:30;;;;;;;5.03;2.33;;;20.30;1.00;;;;;;4878406;29;20076;-49
2023/06/08 10:27:17;;;;;;;4.28;2.05;;;20.30;1.00;;;;;;4878406;29;20045;-50
2023/06/08 10:30:01;;;;;;;5.15;2.13;;;20.30;1.00;;;;;;4878479;29;20416;-51
2023/06/08 10:32:33;;;;;;;3.58;2.00;;;20.30;1.00;;;;;;4876972;29;20100;-49
2023/06/08 10:35:05;;;;;;;11.02;1.67;;;20.30;1.00;;;;;;4878618;29;20097;-50
2023/06/08 10:37:36;;;;;;;10.23;2.15;;;20.30;1.00;;;;;;4878034;29;20400;-49
2023/06/08 10:40:10;;;;;;;6.40;2.03;;;20.30;1.00;;;;;;4878296;29;20488;-48
2023/06/08 10:42:38;;;;;;;5.00;1.98;;;20.30;1.00;;;;;;4878140;29;20045;-49
2023/06/08 10:45:06;;;;;;;5.53;2.13;;;20.30;1.00;;;;;;4878778;29;20125;-49
2023/06/08 10:47:36;;;;;;;4.40;2.08;;;20.30;1.00;;;;;;4877948;29;20493;-49
2023/06/08 10:50:06;;;;;;;3.90;1.35;;;20.40;1.00;;;;;;4877791;29;20044;-51
2023/06/08 10:53:00;;;;;;;4.82;1.63;;;20.30;1.00;;;;;;4877963;29;20080;-49
2023/06/08 10:55:28;;;;;;;5.63;1.77;;;20.40;1.00;;;;;;4876477;29;20065;-53
2023/06/08 10:58:05;;;;;;;5.28;2.15;;;20.40;1.00;;;;;;4877148;29;20119;-52
2023/06/08 11:00:42;;;;;;;6.18;2.67;;;20.30;1.00;;;;;;4877468;29;20101;-50
2023/06/08 11:03:15;;;;;;;5.80;2.20;;;20.30;1.00;;;;;;4877814;29;20033;-51
2023/06/08 11:05:45;;;;;;;5.40;1.85;;;20.30;1.00;;;;;;4878121;29;20131;-52
2023/06/08 11:08:12;;;;;;;4.50;2.08;;;20.40;1.00;;;;;;4878217;29;20045;-50
2023/06/08 11:10:40;;;;;;;6.78;2.28;;;20.30;1.00;;;;;;4877627;29;20053;-49
2023/06/08 11:13:16;;;;;;;5.78;1.80;;;20.30;1.00;;;;;;4877956;29;20148;-51
2023/06/08 11:15:46;;;;;;;3.75;1.75;;;20.30;1.00;;;;;;4877984;29;20059;-50
2023/06/08 11:18:13;;;;;;;5.28;2.05;;;20.40;1.00;;;;;;4878051;29;20044;-52
2023/06/08 11:20:42;;;;;;;6.88;2.75;;;20.40;1.00;;;;;;4877515;29;20045;-52
2023/06/08 11:23:10;;;;;;;4.72;1.95;;;20.30;1.00;;;;;;4880560;29;20037;-53
2023/06/08 11:25:38;;;;;;;5.45;2.20;;;20.40;1.00;;;;;;4881668;29;20053;-51
2023/06/08 11:28:10;;;;;;;2.95;1.80;;;20.40;1.00;;;;;;4881667;29;20048;-50
2023/06/08 11:30:38;;;;;;;5.88;1.55;;;20.40;1.00;;;;;;4879868;29;20045;-52
2023/06/08 11:33:06;;;;;;;6.68;2.53;;;20.40;1.00;;;;;;4881721;29;20482;-49
2023/06/08 11:35:34;;;;;;;6.43;2.72;;;20.30;1.00;;;;;;4881700;29;20044;-50
2023/06/08 11:38:02;;;;;;;6.05;2.45;;;20.40;1.00;;;;;;4881341;29;20083;-50
2023/06/08 11:40:32;;;;;;;4.75;1.75;;;20.40;1.00;;;;;;4881036;29;20115;-53
2023/06/08 11:43:00;;;;;;;3.40;2.20;;;20.40;1.00;;;;;;4881455;29;20573;-51
2023/06/08 11:45:28;;;;;;;5.18;2.15;;;20.30;1.00;;;;;;4882144;29;20051;-49
2023/06/08 11:47:57;;;;;;;5.13;1.92;;;20.40;1.00;;;;;;4881376;29;20041;-50
2023/06/08 11:50:49;;;;;;;5.75;2.03;;;20.30;1.00;;;;;;4881008;29;20063;-54
2023/06/08 11:53:22;;;;;;;6.65;1.73;;;20.30;1.00;;;;;;4881552;29;20089;-52
2023/06/08 11:55:56;;;;;;;3.15;1.67;;;20.40;1.00;;;;;;4881301;29;20493;-52
2023/06/08 11:58:24;;;;;;;3.42;2.10;;;20.30;1.00;;;;;;4881516;29;20041;-50
2023/06/08 12:01:03;;;;;;;3.25;1.95;;;20.40;1.00;;;;;;4880925;29;20052;-52
2023/06/08 12:03:34;;;;;;;2.70;1.77;;;20.30;1.00;;;;;;4881427;29;20415;-51
2023/06/08 12:06:01;;;;;;;3.95;1.73;;;20.30;1.00;;;;;;4881476;29;20037;-49
2023/06/08 12:08:28;;;;;;;7.18;2.00;;;20.30;1.00;;;;;;4880918;29;20473;-53
2023/06/08 12:10:56;;;;;;;8.27;2.28;;;20.30;1.00;;;;;;4880702;29;20048;-51
2023/06/08 12:13:24;;;;;;;3.92;2.30;;;20.30;1.00;;;;;;4881022;29;20382;-50
2023/06/08 12:15:53;;;;;;;5.32;1.92;;;20.40;1.00;;;;;;4880706;29;20036;-49
2023/06/08 12:18:23;;;;;;;5.35;2.35;;;20.30;1.00;;;;;;4881067;29;20078;-51
2023/06/08 12:20:54;;;;;;;2.60;1.50;;;20.30;1.00;;;;;;4880453;29;20564;-52
2023/06/08 12:23:21;;;;;;;4.45;1.58;;;20.30;1.00;;;;;;4881041;29;20049;-51
2023/06/08 12:25:51;;;;;;;5.03;1.85;;;20.30;1.00;;;;;;4880484;29;20072;-49
2023/06/08 12:28:25;;;;;;;4.65;1.70;;;20.30;1.00;;;;;;4880732;29;20100;-50
2023/06/08 12:30:54;;;;;;;2.92;1.20;;;20.30;1.00;;;;;;4880251;29;20037;-51
2023/06/08 12:33:21;;;;;;;5.43;1.92;;;20.30;1.00;;;;;;4880521;29;20104;-53
2023/06/08 12:35:50;;;;;;;4.00;1.90;;;20.30;1.00;;;;;;4879899;29;20439;-51
2023/06/08 12:38:20;;;;;;;6.55;1.65;;;20.30;1.00;;;;;;4880481;29;20037;-51
2023/06/08 12:40:50;;;;;;;3.92;1.40;;;20.30;1.00;;;;;;4880215;29;20378;-50
2023/06/08 12:43:18;;;;;;;3.35;1.65;;;20.30;1.00;;;;;;4880522;29;20045;-50
2023/06/08 12:45:46;;;;;;;5.65;2.05;;;20.30;1.00;;;;;;4881842;29;20033;-50
2023/06/08 12:48:14;;;;;;;3.45;1.85;;;20.30;1.00;;;;;;4880404;29;20048;-50
2023/06/08 12:50:41;;;;;;;4.60;1.80;;;20.30;1.00;;;;;;4879818;29;20045;-50
2023/06/08 12:53:08;;;;;;;6.43;2.08;;;20.30;1.00;;;;;;4880284;29;20508;-49
2023/06/08 12:55:35;;;;;;;3.50;2.40;;;20.30;1.00;;;;;;4880077;29;20460;-54
2023/06/08 12:58:02;;;;;;;3.95;1.60;;;20.30;1.00;;;;;;4880319;29;20429;-51
2023/06/08 13:00:29;;;;;;;4.15;2.00;;;20.30;1.00;;;;;;4879853;29;20562;-53
2023/06/08 13:02:57;;;;;;;7.43;1.73;;;20.30;1.00;;;;;;4872651;29;20041;-51
2023/06/08 13:05:25;;;;;;;7.68;2.10;;;20.30;1.00;;;;;;4880064;29;20045;-51
2023/06/08 13:07:52;;;;;;;4.35;1.63;;;20.30;1.00;;;;;;4880233;29;20037;-53